Philadelphia, Pennsylvania
Traffic Map
Current Weather Conditions
Philadelphia, Pennsylvania
Overcast
Overcast
64°
Feels Like: 64°
Wind Chill: 64° Ceiling: 9000
Heat Index: 64° Visibility: 10mi
Dew Point: 60° Wind: 14mph
Humidity: 87% Direction: 50° (NE)
Pressure: 30.42in Gusts: 18mph
Raw Report DataKPHL 241454Z 05012G16KT 10SM FEW013 SCT042 BKN090 OVC140 18/16 A3042 RMK AO2 RAE14 SLP299 P0000 60001 T01780156 51016
Traffic Incident Summary
Active as of:
Severity:
Category:
InformationThere was an issue retrieving the traffic information for this location. Please try a different location or try again shortly.
Advertisements